00:58 Bike Schwaz - Kundl
Ort Schwaz Datum 21.10.2010 07:16:51
Kategorie MTB
Distanz 26,71 Kilometer Steigung 29,8 Meter Gefälle -36,5 Meter
Gesamt Zeit 00:57:35 Aktiv 00:57:35 Pause 00:00:00
Durchs. Tempo 27,8 km/h Tempo max. 37,9 km/h Tempo min. 14,5 km/h
Kalorien 0 Durchs. HF 149 BPM HF max. 160 BPM
Wetter 7 °C ScatterClouds
Ausrüstung Schwalbe - Nobby Nic vorne
Schwalbe - Racing Ralph hinten
Shimano - HG-93 XT
Specialized - BG S-Works MTB
Specialized - Stumpjumper Comp
SwissStop - Disc17 Avid Juicy
Notiz Schwaz - Kundl ... beim Start 3° und Regen, leichter Gegenwind ... garmin connect
Splits
Distanz (km) Gesamt Zeit Split Zeit Split Tempo Split Tempo Höhenprofil (m)
1,00 00:02:27 00:02:27 00:02:27 24,5 5,00
2,00 00:04:26 00:01:59 00:01:59 30,3 0,00
3,00 00:06:26 00:02:00 00:02:00 30,0 -0,19
4,00 00:09:05 00:02:39 00:02:39 22,6 3,90
5,00 00:10:49 00:01:44 00:01:44 34,6 -13,71
6,00 00:13:06 00:02:17 00:02:17 26,3 11,94
7,00 00:15:38 00:02:32 00:02:32 23,7 13,35
8,00 00:17:55 00:02:17 00:02:17 26,3 -31,91
9,00 00:19:58 00:02:03 00:02:03 29,3 -2,37
10,00 00:22:02 00:02:04 00:02:04 29,0 0,00
11,00 00:24:02 00:02:00 00:02:00 30,0 -0,77
12,00 00:26:05 00:02:03 00:02:03 29,3 0,77
13,00 00:28:32 00:02:27 00:02:27 24,5 0,70
14,00 00:30:43 00:02:11 00:02:11 27,5 -3,85
15,00 00:32:48 00:02:05 00:02:05 28,8 -1,85
16,00 00:34:53 00:02:05 00:02:05 28,8 -0,90
17,00 00:36:59 00:02:06 00:02:06 28,6 -1,10
18,00 00:39:05 00:02:06 00:02:06 28,6 4,13
19,00 00:41:10 00:02:05 00:02:05 28,8 -3,85
20,00 00:43:13 00:02:03 00:02:03 29,3 -2,28
21,00 00:45:17 00:02:04 00:02:04 29,0 -1,00
22,00 00:47:18 00:02:01 00:02:01 29,8 0,00
23,00 00:49:21 00:02:03 00:02:03 29,3 0,00
24,00 00:51:27 00:02:06 00:02:06 28,6 0,00
25,00 00:53:33 00:02:06 00:02:06 28,6 0,00
26,00 00:55:42 00:02:09 00:02:09 27,9 -1,00